Copenhagen, Louisiana
Current Conditions -  °F | °C
As of 8:53 AM on Thursday 23 Oct 2014 (Local Time) from KMLU Reporting Station
Clear Clear  
Wind Chill: 53°   Ceiling: Unl
Heat Index: 53°   Visibility: 10mi
Dew Point: 48°   Wind: 6mph
Humidity: 83%   Direction: 80°E
Pressure: 30.19"   Gusts: NA
Location:  32.1631°N, 92.1971°W
Report Text: KMLU 231353Z 08005KT 10SM CLR 12/09 A3019 RMK AO2 SLP221 T01170089
Loading
Personal Weather Stations






























Interactive Weather Map
Tropical Storm Tracking
New forecast layout! Learn more

10-Day Weather Forecast

Advertisements
Track Severe Weather on mobile